Terminal Aerodrome Forecast
Issued by NWS

Home | Current Version | Previous Version | Text Only | Print | Product List | Glossary On
Versions: 1 2 3 4 5 6 7 8 9 10 11 12 13 14 15 16 17 18 19 20 21 22 23 24 25
000
FTUS44 KTSA 211700
TAFFYV
TAF
KFYV 211728Z 2118/2218 36009KT P6SM SCT012 BKN040
      TEMPO 2118/2119 BKN015
     FM212000 36010KT P6SM SKC
     FM220000 36003KT P6SM SKC=

USA.gov is the U.S. government's official web portal to all federal, state and local government web resources and services.